SYN001 KSLC-KPDX
Flight info
| Callsign | SYN001 |
|---|---|
| Flight time | N/A |
| Altitude | 38000 |
| Route | CGULL1 TWF ALKAL IMB JOTBA HHOOD6 |
| Aircraft | BCS3/M-SBDE2E3GIRWXY/LB1 |
Departure
| Time | N/A |
|---|---|
| Airport | Salt Lake City International Airport (KSLC) |
Arrival
| Time | 2026-05-04 05:47 |
|---|---|
| Airport | Portland International Airport (KPDX) |
| Time | Latitude | Longitude | Altitude | Speed | Heading |
|---|---|---|---|---|---|
| 2026-05-04 04:50 | 43.06994 | -115.44648 | 37755 ft | 424 kts | 298° |
| 2026-05-04 04:50 | 43.10093 | -115.51541 | 37819 ft | 426 kts | 298° |
| 2026-05-04 04:51 | 43.13205 | -115.58475 | 37828 ft | 428 kts | 298° |
| 2026-05-04 04:51 | 43.16307 | -115.65401 | 37824 ft | 429 kts | 298° |
| 2026-05-04 04:52 | 43.19395 | -115.72306 | 37827 ft | 421 kts | 298° |
| 2026-05-04 04:52 | 43.22460 | -115.79179 | 37825 ft | 424 kts | 298° |
| 2026-05-04 04:53 | 43.25551 | -115.86126 | 37822 ft | 427 kts | 298° |
| 2026-05-04 04:53 | 43.28653 | -115.93116 | 37814 ft | 429 kts | 298° |
| 2026-05-04 04:54 | 43.31740 | -116.00081 | 37803 ft | 424 kts | 298° |
| 2026-05-04 04:54 | 43.34801 | -116.07009 | 37814 ft | 425 kts | 298° |
| 2026-05-04 04:55 | 43.37860 | -116.13950 | 37825 ft | 428 kts | 298° |
| 2026-05-04 04:55 | 43.40952 | -116.21002 | 37863 ft | 432 kts | 302° |
| 2026-05-04 04:56 | 43.44076 | -116.28120 | 37845 ft | 437 kts | 302° |
| 2026-05-04 04:56 | 43.47227 | -116.35312 | 37841 ft | 440 kts | 302° |
| 2026-05-04 04:57 | 43.50400 | -116.42575 | 37846 ft | 443 kts | 302° |
| 2026-05-04 04:57 | 43.53577 | -116.49869 | 37851 ft | 445 kts | 302° |
| 2026-05-04 04:58 | 43.56747 | -116.57165 | 37851 ft | 446 kts | 302° |
| 2026-05-04 04:58 | 43.59906 | -116.64456 | 37838 ft | 439 kts | 302° |
| 2026-05-04 04:59 | 43.63035 | -116.71696 | 37841 ft | 441 kts | 302° |
| 2026-05-04 04:59 | 43.66182 | -116.78996 | 37838 ft | 444 kts | 302° |
| 2026-05-04 05:00 | 43.69346 | -116.86354 | 37829 ft | 446 kts | 302° |
| 2026-05-04 05:01 | 43.74057 | -116.97345 | 37825 ft | 439 kts | 302° |
| 2026-05-04 05:01 | 43.77154 | -117.04591 | 37839 ft | 442 kts | 302° |
| 2026-05-04 05:02 | 43.80292 | -117.11954 | 37841 ft | 444 kts | 302° |
| 2026-05-04 05:02 | 43.83422 | -117.19318 | 37839 ft | 440 kts | 302° |
| 2026-05-04 05:03 | 43.86518 | -117.26620 | 37843 ft | 440 kts | 302° |
| 2026-05-04 05:04 | 43.92713 | -117.41285 | 37840 ft | 441 kts | 302° |
| 2026-05-04 05:04 | 43.95595 | -117.48782 | 37850 ft | 440 kts | 295° |
| 2026-05-04 05:06 | 44.05518 | -117.79991 | 37875 ft | 442 kts | 296° |
| 2026-05-04 05:07 | 44.08038 | -117.87842 | 37882 ft | 444 kts | 296° |
| 2026-05-04 05:07 | 44.10548 | -117.95678 | 37884 ft | 442 kts | 296° |
| 2026-05-04 05:09 | 44.21764 | -118.30970 | 37907 ft | 443 kts | 296° |
| 2026-05-04 05:10 | 44.24251 | -118.38858 | 37912 ft | 445 kts | 296° |
| 2026-05-04 05:10 | 44.26740 | -118.46777 | 37918 ft | 445 kts | 296° |
| 2026-05-04 05:11 | 44.29205 | -118.54645 | 37912 ft | 443 kts | 296° |
| 2026-05-04 05:11 | 44.31676 | -118.62552 | 37923 ft | 446 kts | 296° |
| 2026-05-04 05:12 | 44.34159 | -118.70525 | 37926 ft | 447 kts | 296° |
| 2026-05-04 05:12 | 44.36626 | -118.78473 | 37919 ft | 444 kts | 296° |
| 2026-05-04 05:13 | 44.39065 | -118.86349 | 37919 ft | 446 kts | 296° |
| 2026-05-04 05:13 | 44.41533 | -118.94345 | 37915 ft | 448 kts | 296° |
| 2026-05-04 05:14 | 44.43987 | -119.02323 | 37910 ft | 445 kts | 296° |
| 2026-05-04 05:14 | 44.46428 | -119.10283 | 37914 ft | 445 kts | 296° |
| 2026-05-04 05:15 | 44.48873 | -119.18279 | 37920 ft | 448 kts | 296° |
| 2026-05-04 05:15 | 44.51321 | -119.26310 | 37907 ft | 448 kts | 296° |
| 2026-05-04 05:16 | 44.53344 | -119.32965 | 37912 ft | 446 kts | 296° |
| 2026-05-04 05:16 | 44.55773 | -119.40982 | 37910 ft | 447 kts | 296° |
| 2026-05-04 05:17 | 44.58210 | -119.49047 | 37904 ft | 449 kts | 296° |
| 2026-05-04 05:17 | 44.60634 | -119.57096 | 37909 ft | 447 kts | 295° |
| 2026-05-04 05:18 | 44.63048 | -119.65140 | 37909 ft | 447 kts | 296° |
| 2026-05-04 05:18 | 44.66011 | -119.72690 | 37899 ft | 444 kts | 311° |
| 2026-05-04 05:19 | 44.70088 | -119.79222 | 37901 ft | 444 kts | 315° |
| 2026-05-04 05:19 | 44.74225 | -119.85606 | 37897 ft | 440 kts | 315° |
| 2026-05-04 05:20 | 44.78363 | -119.92002 | 37895 ft | 442 kts | 315° |
| 2026-05-04 05:20 | 44.82483 | -119.98386 | 37900 ft | 444 kts | 315° |
| 2026-05-04 05:21 | 44.86657 | -120.04870 | 37005 ft | 449 kts | 315° |
| 2026-05-04 05:21 | 44.88742 | -120.08116 | 36446 ft | 442 kts | 315° |
| 2026-05-04 05:21 | 44.90788 | -120.11307 | 35897 ft | 439 kts | 315° |
| 2026-05-04 05:22 | 44.92850 | -120.14522 | 35307 ft | 444 kts | 315° |
| 2026-05-04 05:22 | 44.94940 | -120.17783 | 34708 ft | 450 kts | 315° |
| 2026-05-04 05:22 | 44.97051 | -120.21083 | 34108 ft | 455 kts | 315° |
| 2026-05-04 05:22 | 44.99176 | -120.24409 | 33460 ft | 456 kts | 315° |
| 2026-05-04 05:23 | 45.01289 | -120.27722 | 32866 ft | 450 kts | 315° |
| 2026-05-04 05:23 | 45.03371 | -120.30992 | 32285 ft | 444 kts | 315° |
| 2026-05-04 05:23 | 45.05430 | -120.34228 | 31694 ft | 442 kts | 315° |
| 2026-05-04 05:23 | 45.07453 | -120.37411 | 31118 ft | 437 kts | 315° |
| 2026-05-04 05:24 | 45.09470 | -120.40589 | 30543 ft | 431 kts | 315° |
| 2026-05-04 05:24 | 45.11464 | -120.43733 | 29978 ft | 427 kts | 315° |
| 2026-05-04 05:24 | 45.13440 | -120.46852 | 29355 ft | 423 kts | 315° |
| 2026-05-04 05:24 | 45.15398 | -120.49946 | 28832 ft | 419 kts | 315° |
| 2026-05-04 05:25 | 45.17126 | -120.53281 | 28258 ft | 422 kts | 304° |
| 2026-05-04 05:25 | 45.18582 | -120.56878 | 27693 ft | 420 kts | 302° |
| 2026-05-04 05:25 | 45.19977 | -120.60472 | 27142 ft | 415 kts | 301° |
| 2026-05-04 05:25 | 45.21361 | -120.64058 | 26595 ft | 412 kts | 301° |
| 2026-05-04 05:26 | 45.22736 | -120.67626 | 26034 ft | 411 kts | 301° |
| 2026-05-04 05:26 | 45.24098 | -120.71164 | 25507 ft | 406 kts | 301° |
| 2026-05-04 05:26 | 45.25444 | -120.74666 | 24971 ft | 403 kts | 301° |
| 2026-05-04 05:26 | 45.26785 | -120.78156 | 24445 ft | 401 kts | 301° |
| 2026-05-04 05:27 | 45.28115 | -120.81625 | 23906 ft | 398 kts | 301° |
| 2026-05-04 05:28 | 45.37111 | -121.05188 | 20281 ft | 378 kts | 300° |
| 2026-05-04 05:29 | 45.38308 | -121.08495 | 19787 ft | 376 kts | 295° |
| 2026-05-04 05:29 | 45.39212 | -121.11976 | 19297 ft | 375 kts | 290° |
| 2026-05-04 05:29 | 45.40038 | -121.15488 | 18804 ft | 372 kts | 290° |
| 2026-05-04 05:29 | 45.40847 | -121.18963 | 18320 ft | 369 kts | 290° |
| 2026-05-04 05:31 | 45.46328 | -121.42610 | 14969 ft | 347 kts | 289° |
| 2026-05-04 05:31 | 45.47072 | -121.45833 | 14525 ft | 341 kts | 289° |
| 2026-05-04 05:32 | 45.47805 | -121.49015 | 14288 ft | 338 kts | 289° |
| 2026-05-04 05:32 | 45.48546 | -121.52236 | 13789 ft | 342 kts | 289° |
| 2026-05-04 05:32 | 45.49274 | -121.55407 | 13311 ft | 332 kts | 289° |
| 2026-05-04 05:33 | 45.50699 | -121.61624 | 12449 ft | 331 kts | 289° |
| 2026-05-04 05:33 | 45.51407 | -121.64722 | 12021 ft | 326 kts | 289° |
| 2026-05-04 05:33 | 45.52101 | -121.67760 | 11591 ft | 315 kts | 289° |
| 2026-05-04 05:33 | 45.52749 | -121.70668 | 11181 ft | 301 kts | 285° |
| 2026-05-04 05:34 | 45.53036 | -121.73586 | 10795 ft | 295 kts | 275° |
| 2026-05-04 05:34 | 45.53173 | -121.76504 | 10401 ft | 293 kts | 274° |
| 2026-05-04 05:34 | 45.53292 | -121.79389 | 10017 ft | 290 kts | 274° |
| 2026-05-04 05:34 | 45.53408 | -121.82242 | 9624 ft | 286 kts | 274° |
| 2026-05-04 05:35 | 45.53523 | -121.85069 | 9242 ft | 285 kts | 274° |
| 2026-05-04 05:35 | 45.53637 | -121.87900 | 8863 ft | 285 kts | 274° |
| 2026-05-04 05:35 | 45.53751 | -121.90713 | 8484 ft | 283 kts | 274° |
| 2026-05-04 05:35 | 45.53863 | -121.93516 | 8111 ft | 283 kts | 274° |
| 2026-05-04 05:36 | 45.53974 | -121.96293 | 7731 ft | 276 kts | 274° |
| 2026-05-04 05:36 | 45.54080 | -121.98965 | 7374 ft | 264 kts | 274° |
| 2026-05-04 05:36 | 45.54182 | -122.01543 | 7034 ft | 258 kts | 274° |
| 2026-05-04 05:36 | 45.54133 | -122.04078 | 6658 ft | 254 kts | 257° |
| 2026-05-04 05:37 | 45.53624 | -122.06422 | 6428 ft | 242 kts | 251° |
| 2026-05-04 05:37 | 45.53049 | -122.08639 | 6203 ft | 235 kts | 250° |
| 2026-05-04 05:37 | 45.52478 | -122.10790 | 5977 ft | 235 kts | 250° |
| 2026-05-04 05:38 | 45.51326 | -122.15117 | 5521 ft | 234 kts | 250° |
| 2026-05-04 05:38 | 45.50748 | -122.17289 | 5292 ft | 233 kts | 250° |
| 2026-05-04 05:38 | 45.50175 | -122.19432 | 5068 ft | 225 kts | 250° |
| 2026-05-04 05:38 | 45.49630 | -122.21471 | 4856 ft | 215 kts | 250° |
| 2026-05-04 05:39 | 45.49107 | -122.23434 | 4664 ft | 210 kts | 250° |
| 2026-05-04 05:39 | 45.48093 | -122.27219 | 4249 ft | 199 kts | 250° |
| 2026-05-04 05:39 | 45.47603 | -122.29054 | 4064 ft | 198 kts | 250° |
| 2026-05-04 05:40 | 45.47993 | -122.32700 | 3678 ft | 193 kts | 298° |
| 2026-05-04 05:40 | 45.48602 | -122.34373 | 3482 ft | 186 kts | 300° |
| 2026-05-04 05:40 | 45.49204 | -122.35962 | 3299 ft | 179 kts | 301° |
| 2026-05-04 05:41 | 45.49792 | -122.37501 | 3131 ft | 176 kts | 301° |
| 2026-05-04 05:41 | 45.50380 | -122.39022 | 2947 ft | 174 kts | 301° |
| 2026-05-04 05:41 | 45.50962 | -122.40520 | 2727 ft | 171 kts | 301° |
| 2026-05-04 05:41 | 45.51530 | -122.41979 | 2516 ft | 166 kts | 302° |
| 2026-05-04 05:42 | 45.52087 | -122.43402 | 2305 ft | 163 kts | 302° |
| 2026-05-04 05:42 | 45.52675 | -122.44771 | 2099 ft | 160 kts | 306° |
| 2026-05-04 05:42 | 45.53270 | -122.46099 | 1891 ft | 157 kts | 303° |
| 2026-05-04 05:42 | 45.53800 | -122.47433 | 1687 ft | 153 kts | 301° |
| 2026-05-04 05:43 | 45.54303 | -122.48746 | 1503 ft | 149 kts | 301° |
| 2026-05-04 05:43 | 45.54800 | -122.50025 | 1321 ft | 147 kts | 301° |
| 2026-05-04 05:43 | 45.55294 | -122.51287 | 1150 ft | 144 kts | 301° |
| 2026-05-04 05:45 | 45.58466 | -122.59454 | 35 ft | 96 kts | 299° |
| 2026-05-04 05:45 | 45.58760 | -122.60214 | 33 ft | 57 kts | 299° |
| 2026-05-04 05:47 | 45.58906 | -122.60049 | 34 ft | 12 kts | 119° |
| 2026-05-04 05:47 | 45.58861 | -122.59935 | 33 ft | 14 kts | 119° |
| 2026-05-04 05:47 | 45.58812 | -122.59810 | 37 ft | 14 kts | 119° |
| 2026-05-04 05:48 | 45.58791 | -122.59752 | 36 ft | 4 kts | 108° |
| 2026-05-04 05:48 | 45.58810 | -122.59714 | 38 ft | 10 kts | 35° |
| 2026-05-04 05:48 | 45.58854 | -122.59697 | 37 ft | 0 kts | 10° |